createdAt,value
2023-05-05T00:00:12.231Z,9.70
2023-05-05T00:02:39.838Z,9.60
2023-05-05T00:05:07.358Z,9.50
2023-05-05T00:07:34.026Z,9.50
2023-05-05T00:10:00.760Z,9.40
2023-05-05T00:12:27.390Z,9.40
2023-05-05T00:14:54.040Z,9.30
2023-05-05T00:17:20.647Z,9.30
2023-05-05T00:19:47.335Z,9.30
2023-05-05T00:22:14.030Z,9.20
2023-05-05T00:24:40.812Z,9.20
2023-05-05T00:27:07.510Z,9.20
2023-05-05T00:29:34.227Z,9.10
2023-05-05T00:32:01.452Z,9.10
2023-05-05T00:34:28.110Z,9.10
2023-05-05T00:36:54.706Z,9.10
2023-05-05T00:39:21.344Z,9.10
2023-05-05T00:41:47.970Z,9.00
2023-05-05T00:44:14.724Z,8.90
2023-05-05T00:46:43.091Z,8.90
2023-05-05T00:49:10.184Z,8.90
2023-05-05T00:51:36.918Z,8.80
2023-05-05T00:54:03.663Z,8.80
2023-05-05T00:56:30.786Z,8.80
2023-05-05T00:58:58.418Z,8.80
2023-05-05T01:01:25.230Z,8.90
2023-05-05T01:03:52.067Z,8.80
2023-05-05T01:06:40.685Z,8.80
2023-05-05T01:09:13.090Z,8.80
2023-05-05T01:11:43.944Z,8.80
2023-05-05T01:14:16.894Z,8.80
2023-05-05T01:16:51.359Z,8.80
2023-05-05T01:19:45.391Z,8.80
2023-05-05T01:22:14.939Z,8.80
2023-05-05T01:25:03.370Z,8.70
2023-05-05T01:27:48.254Z,8.70
2023-05-05T01:30:46.543Z,8.70
2023-05-05T01:33:18.025Z,8.70
2023-05-05T01:35:50.100Z,8.60
2023-05-05T01:38:21.188Z,8.60
2023-05-05T01:41:00.841Z,8.60
2023-05-05T01:43:30.719Z,8.50
2023-05-05T01:45:59.274Z,8.50
2023-05-05T01:48:26.376Z,8.50
2023-05-05T01:50:53.928Z,8.50
2023-05-05T01:53:23.024Z,8.50
2023-05-05T01:55:50.543Z,8.40
2023-05-05T01:58:18.328Z,8.40
2023-05-05T02:00:45.644Z,8.40
2023-05-05T02:03:14.860Z,8.30
2023-05-05T02:05:43.459Z,8.30
2023-05-05T02:08:11.410Z,8.20
2023-05-05T02:10:42.824Z,8.20
2023-05-05T02:13:12.384Z,8.10
2023-05-05T02:15:40.488Z,8.10
2023-05-05T02:18:09.869Z,8.10
2023-05-05T02:20:38.788Z,8.10
2023-05-05T02:23:07.737Z,8.10
2023-05-05T02:25:45.624Z,8.10
2023-05-05T02:28:36.193Z,8.10
2023-05-05T02:31:03.544Z,8.00
2023-05-05T02:33:33.723Z,8.10
2023-05-05T02:36:09.826Z,8.00
2023-05-05T02:38:40.190Z,8.10
2023-05-05T02:41:11.237Z,8.10
2023-05-05T02:43:40.924Z,8.10
2023-05-05T02:46:07.806Z,8.10
2023-05-05T02:48:34.924Z,8.10
2023-05-05T02:51:01.588Z,8.10
2023-05-05T02:53:29.023Z,8.10
2023-05-05T02:56:06.936Z,8.10
2023-05-05T02:58:51.848Z,8.20
2023-05-05T03:01:30.367Z,8.20
2023-05-05T03:04:06.863Z,8.20
2023-05-05T03:06:40.524Z,8.20
2023-05-05T03:09:20.728Z,8.30
2023-05-05T03:11:50.937Z,8.30
2023-05-05T03:14:21.070Z,8.30
2023-05-05T03:16:49.290Z,8.30
2023-05-05T03:19:21.302Z,8.30
2023-05-05T03:21:48.316Z,8.30
2023-05-05T03:24:16.922Z,8.30
2023-05-05T03:26:45.045Z,8.30
2023-05-05T03:29:12.485Z,8.30
2023-05-05T03:31:39.334Z,8.20
2023-05-05T03:34:07.201Z,8.20
2023-05-05T03:36:35.192Z,8.20
2023-05-05T03:39:01.803Z,8.20
2023-05-05T03:41:28.527Z,8.10
2023-05-05T03:43:55.198Z,8.10
2023-05-05T03:46:21.947Z,8.10
2023-05-05T03:48:48.676Z,8.00
2023-05-05T03:51:15.671Z,8.00
2023-05-05T03:53:42.422Z,8.00
2023-05-05T03:56:09.266Z,7.90
2023-05-05T03:58:36.007Z,8.00
2023-05-05T04:01:03.853Z,7.90
2023-05-05T04:03:30.767Z,7.80
2023-05-05T04:05:57.509Z,7.80
2023-05-05T04:08:24.253Z,7.80
2023-05-05T04:10:51.117Z,7.80
2023-05-05T04:13:17.833Z,7.80
2023-05-05T04:15:48.279Z,7.80
2023-05-05T04:18:15.203Z,7.80
2023-05-05T04:20:41.945Z,7.90
2023-05-05T04:23:08.618Z,7.90
2023-05-05T04:25:35.299Z,7.90
2023-05-05T04:28:01.951Z,8.00
2023-05-05T04:30:28.849Z,8.00
2023-05-05T04:32:55.635Z,8.10
2023-05-05T04:35:22.427Z,8.10
2023-05-05T04:37:49.351Z,8.20
2023-05-05T04:40:16.187Z,8.30
2023-05-05T04:42:42.926Z,8.40
2023-05-05T04:45:10.191Z,8.40
2023-05-05T04:47:38.042Z,8.50
2023-05-05T04:50:06.084Z,8.60
2023-05-05T04:52:33.140Z,8.70
2023-05-05T04:54:59.939Z,8.80
2023-05-05T04:57:26.729Z,8.90
2023-05-05T04:59:53.450Z,8.90
2023-05-05T05:02:20.571Z,8.90
2023-05-05T05:04:47.301Z,9.00
2023-05-05T05:07:15.028Z,9.20
2023-05-05T05:09:41.680Z,9.30
2023-05-05T05:12:09.676Z,9.50
2023-05-05T05:14:39.837Z,9.60
2023-05-05T05:17:06.942Z,9.60
2023-05-05T05:19:33.818Z,9.80
2023-05-05T05:22:00.565Z,9.90
2023-05-05T05:24:27.262Z,10.10
2023-05-05T05:26:53.985Z,10.30
2023-05-05T05:29:20.704Z,10.60
2023-05-05T05:31:47.427Z,10.70
2023-05-05T05:34:14.108Z,11.00
2023-05-05T05:36:40.828Z,11.10
2023-05-05T05:39:08.028Z,11.30
2023-05-05T05:41:34.743Z,11.30
2023-05-05T05:44:01.369Z,11.50
2023-05-05T05:46:27.992Z,11.70
2023-05-05T05:48:54.717Z,11.80
2023-05-05T05:51:21.381Z,11.90
2023-05-05T05:53:48.015Z,12.00
2023-05-05T05:56:14.851Z,11.90
2023-05-05T05:58:42.422Z,11.90
2023-05-05T06:01:09.137Z,11.90
2023-05-05T06:03:36.014Z,11.90
2023-05-05T06:06:02.825Z,11.90
2023-05-05T06:08:29.476Z,11.90
2023-05-05T06:10:56.216Z,12.00
2023-05-05T06:13:22.900Z,12.20
2023-05-05T06:15:49.623Z,12.50
2023-05-05T06:18:16.343Z,12.90
2023-05-05T06:20:43.533Z,13.20
2023-05-05T06:23:10.332Z,13.40
2023-05-05T06:25:37.580Z,13.80
2023-05-05T06:28:05.543Z,14.10
2023-05-05T06:30:32.733Z,14.50
2023-05-05T06:32:59.668Z,14.60
2023-05-05T06:35:26.382Z,14.60
2023-05-05T06:37:54.354Z,14.80
2023-05-05T06:40:21.425Z,14.90
2023-05-05T06:42:48.050Z,14.80
2023-05-05T06:45:14.978Z,14.90
2023-05-05T06:47:42.428Z,15.00
2023-05-05T06:50:09.734Z,15.00
2023-05-05T06:52:36.596Z,14.90
2023-05-05T06:55:04.425Z,14.80
2023-05-05T06:57:31.208Z,15.10
2023-05-05T06:59:57.902Z,15.50
2023-05-05T07:02:26.644Z,15.80
2023-05-05T07:04:55.774Z,16.00
2023-05-05T07:07:22.576Z,16.00
2023-05-05T07:09:49.288Z,16.00
2023-05-05T07:12:16.005Z,16.20
2023-05-05T07:14:42.732Z,16.60
2023-05-05T07:17:09.469Z,16.80
2023-05-05T07:19:36.156Z,17.00
2023-05-05T07:22:03.054Z,17.30
2023-05-05T07:24:29.725Z,17.40
2023-05-05T07:26:56.453Z,17.40
2023-05-05T07:29:23.085Z,17.80
2023-05-05T07:31:49.767Z,18.00
2023-05-05T07:34:16.501Z,18.00
2023-05-05T07:36:43.944Z,17.90
2023-05-05T07:39:11.041Z,17.80
2023-05-05T07:41:37.769Z,17.60
2023-05-05T07:44:04.544Z,17.50
2023-05-05T07:46:31.304Z,17.40
2023-05-05T07:48:58.079Z,17.20
2023-05-05T07:51:25.070Z,17.10
2023-05-05T07:53:51.787Z,16.90
2023-05-05T07:56:19.900Z,17.20
2023-05-05T07:58:48.255Z,17.50
2023-05-05T08:01:14.894Z,17.80
2023-05-05T08:03:41.883Z,18.30
2023-05-05T08:06:09.957Z,18.10
2023-05-05T08:08:36.830Z,18.00
2023-05-05T08:11:03.882Z,17.80
2023-05-05T08:13:30.692Z,17.60
2023-05-05T08:15:57.362Z,17.40
2023-05-05T08:18:24.611Z,17.30
2023-05-05T08:20:51.882Z,17.10
2023-05-05T08:23:18.637Z,17.00
2023-05-05T08:25:45.430Z,17.10
2023-05-05T08:28:12.077Z,17.30
2023-05-05T08:30:39.120Z,17.30
2023-05-05T08:33:06.064Z,17.30
2023-05-05T08:35:32.785Z,17.10
2023-05-05T08:37:59.446Z,17.00
2023-05-05T08:40:32.746Z,16.90
2023-05-05T08:42:59.921Z,16.90
2023-05-05T08:45:29.021Z,16.90
2023-05-05T08:48:01.707Z,16.90
2023-05-05T08:50:29.330Z,16.90
2023-05-05T08:53:11.420Z,16.80
2023-05-05T08:55:56.531Z,16.90
2023-05-05T08:58:23.621Z,17.00
2023-05-05T09:00:51.009Z,17.10
2023-05-05T09:03:18.289Z,17.00
2023-05-05T09:05:45.278Z,17.10
2023-05-05T09:08:11.950Z,17.10
2023-05-05T09:10:42.529Z,17.10
2023-05-05T09:13:09.333Z,17.20
2023-05-05T09:15:41.421Z,17.40
2023-05-05T09:18:12.308Z,17.60
2023-05-05T09:20:40.255Z,17.80
2023-05-05T09:23:14.048Z,18.00
2023-05-05T09:25:42.865Z,18.30
2023-05-05T09:28:11.390Z,18.60
2023-05-05T09:30:39.569Z,19.10
2023-05-05T09:33:06.545Z,19.70
2023-05-05T09:35:51.287Z,20.10
2023-05-05T09:38:19.270Z,20.30
2023-05-05T09:40:48.500Z,20.60
2023-05-05T09:43:16.824Z,20.80
2023-05-05T09:45:43.860Z,21.10
2023-05-05T09:48:30.750Z,21.50
2023-05-05T09:50:58.740Z,22.00
2023-05-05T09:53:26.590Z,22.20
2023-05-05T09:55:56.269Z,22.20
2023-05-05T09:58:30.845Z,21.90
2023-05-05T10:00:58.813Z,22.00
2023-05-05T10:03:25.992Z,22.30
2023-05-05T10:05:57.618Z,22.70
2023-05-05T10:08:26.851Z,22.90
2023-05-05T10:10:58.275Z,23.10
2023-05-05T10:13:25.200Z,23.00
2023-05-05T10:15:55.285Z,23.20
2023-05-05T10:18:24.376Z,23.10
2023-05-05T10:20:57.615Z,22.90
2023-05-05T10:23:28.254Z,23.00
2023-05-05T10:26:02.027Z,23.10
2023-05-05T10:28:46.123Z,23.10
2023-05-05T10:31:35.730Z,23.20
2023-05-05T10:34:24.098Z,23.10
2023-05-05T10:36:52.005Z,22.90
2023-05-05T10:39:19.998Z,22.90
2023-05-05T10:41:48.131Z,23.10
2023-05-05T10:44:20.734Z,23.00
2023-05-05T10:46:48.470Z,23.00
2023-05-05T10:49:18.362Z,22.70
2023-05-05T10:52:12.117Z,22.50
2023-05-05T10:54:49.584Z,22.20
2023-05-05T10:57:23.896Z,22.10
2023-05-05T10:59:57.416Z,21.80
2023-05-05T11:02:42.998Z,21.60
2023-05-05T11:05:27.764Z,21.60
2023-05-05T11:08:14.878Z,21.40
2023-05-05T11:10:44.975Z,21.40
2023-05-05T11:13:14.993Z,21.20
2023-05-05T11:15:41.934Z,21.20
2023-05-05T11:18:37.749Z,21.20
2023-05-05T11:21:15.634Z,21.30
2023-05-05T11:23:47.250Z,21.30
2023-05-05T11:26:15.134Z,21.40
2023-05-05T11:29:01.939Z,21.40
2023-05-05T11:31:30.928Z,21.60
2023-05-05T11:34:36.230Z,21.70
2023-05-05T11:37:05.918Z,21.80
2023-05-05T11:39:40.365Z,21.90
2023-05-05T11:42:22.230Z,21.90
2023-05-05T11:44:49.152Z,21.90
2023-05-05T11:47:15.802Z,21.90
2023-05-05T11:49:42.469Z,21.80
2023-05-05T11:52:10.789Z,21.70
2023-05-05T11:54:41.362Z,21.50
2023-05-05T11:57:10.725Z,21.40
2023-05-05T11:59:50.643Z,21.20
2023-05-05T12:02:18.579Z,21.10
2023-05-05T12:04:46.785Z,20.90
2023-05-05T12:07:21.284Z,20.70
2023-05-05T12:09:49.309Z,20.50
2023-05-05T12:12:16.893Z,20.20
2023-05-05T12:14:47.097Z,19.70
2023-05-05T12:17:14.238Z,19.20
2023-05-05T12:19:51.892Z,18.90
2023-05-05T12:22:27.717Z,18.50
2023-05-05T12:24:59.243Z,18.20
2023-05-05T12:27:29.479Z,17.90
2023-05-05T12:29:57.651Z,17.90
2023-05-05T12:32:26.081Z,17.80
2023-05-05T12:34:54.386Z,17.90
2023-05-05T12:37:22.435Z,18.10
2023-05-05T12:39:50.102Z,18.20
2023-05-05T12:42:17.276Z,18.40
2023-05-05T12:44:44.822Z,18.30
2023-05-05T12:47:12.673Z,18.40
2023-05-05T12:49:50.156Z,18.30
2023-05-05T12:52:17.202Z,18.20
2023-05-05T12:54:56.588Z,18.10
2023-05-05T12:57:23.791Z,18.10
2023-05-05T12:59:51.625Z,18.00
2023-05-05T13:02:19.367Z,17.90
2023-05-05T13:04:53.994Z,17.80
2023-05-05T13:07:21.821Z,17.80
2023-05-05T13:09:49.795Z,17.70
2023-05-05T13:12:19.540Z,17.70
2023-05-05T13:14:46.727Z,17.60
2023-05-05T13:17:14.195Z,17.60
2023-05-05T13:19:42.541Z,17.60
2023-05-05T13:22:12.938Z,17.50
2023-05-05T13:24:50.826Z,17.40
2023-05-05T13:27:19.187Z,17.40
2023-05-05T13:29:46.084Z,17.50
2023-05-05T13:32:12.848Z,17.40
2023-05-05T13:34:39.643Z,17.40
2023-05-05T13:37:06.667Z,17.40
2023-05-05T13:39:33.372Z,17.50
2023-05-05T13:42:00.013Z,17.50
2023-05-05T13:44:26.627Z,17.60
2023-05-05T13:46:53.317Z,17.70
2023-05-05T13:49:20.172Z,17.70
2023-05-05T13:51:47.115Z,17.80
2023-05-05T13:54:13.989Z,17.80
2023-05-05T13:56:40.674Z,17.90
2023-05-05T13:59:07.491Z,18.00
2023-05-05T14:01:34.206Z,18.30
2023-05-05T14:04:03.648Z,18.60
2023-05-05T14:06:32.596Z,18.90
2023-05-05T14:08:59.356Z,19.20
2023-05-05T14:11:25.996Z,19.50
2023-05-05T14:13:52.848Z,19.80
2023-05-05T14:16:23.301Z,19.90
2023-05-05T14:18:49.925Z,20.00
2023-05-05T14:21:16.718Z,19.90
2023-05-05T14:23:43.389Z,19.80
2023-05-05T14:26:10.052Z,19.60
2023-05-05T14:28:36.691Z,19.60
2023-05-05T14:31:03.500Z,19.40
2023-05-05T14:33:30.134Z,19.30
2023-05-05T14:35:56.864Z,19.20
2023-05-05T14:38:23.623Z,19.10
2023-05-05T14:40:50.398Z,19.10
2023-05-05T14:43:17.026Z,19.00
2023-05-05T14:45:44.293Z,18.90
2023-05-05T14:48:11.194Z,18.80
2023-05-05T14:50:39.815Z,18.80
2023-05-05T14:53:06.510Z,18.70
2023-05-05T14:55:33.250Z,18.70
2023-05-05T14:57:59.974Z,18.50
2023-05-05T15:00:26.871Z,18.50
2023-05-05T15:02:53.768Z,18.30
2023-05-05T15:05:20.584Z,18.30
2023-05-05T15:07:47.255Z,18.20
2023-05-05T15:10:13.989Z,18.10
2023-05-05T15:12:40.749Z,18.00
2023-05-05T15:15:08.601Z,17.90
2023-05-05T15:17:37.411Z,17.80
2023-05-05T15:20:06.271Z,17.70
2023-05-05T15:22:32.990Z,17.60
2023-05-05T15:24:59.699Z,17.60
2023-05-05T15:27:26.761Z,17.50
2023-05-05T15:29:54.361Z,17.40
2023-05-05T15:32:21.132Z,17.30
2023-05-05T15:34:50.111Z,17.20
2023-05-05T15:37:17.078Z,17.00
2023-05-05T15:39:43.706Z,16.80
2023-05-05T15:42:10.431Z,16.60
2023-05-05T15:44:37.121Z,16.40
2023-05-05T15:47:04.286Z,16.20
2023-05-05T15:49:31.068Z,16.00
2023-05-05T15:51:57.942Z,15.80
2023-05-05T15:54:24.680Z,15.70
2023-05-05T15:56:51.291Z,15.60
2023-05-05T15:59:19.257Z,15.50
2023-05-05T16:01:46.761Z,15.40
2023-05-05T16:04:13.839Z,15.30
2023-05-05T16:06:40.856Z,15.20
2023-05-05T16:09:07.689Z,15.10
2023-05-05T16:11:34.572Z,15.10
2023-05-05T16:14:01.261Z,15.10
2023-05-05T16:16:27.946Z,15.00
2023-05-05T16:18:55.198Z,15.00
2023-05-05T16:21:21.905Z,15.00
2023-05-05T16:23:48.627Z,15.00
2023-05-05T16:26:15.350Z,14.90
2023-05-05T16:28:42.039Z,15.00
2023-05-05T16:31:10.613Z,15.00
2023-05-05T16:33:43.436Z,15.10
2023-05-05T16:36:12.209Z,15.10
2023-05-05T16:38:42.213Z,15.20
2023-05-05T16:41:10.008Z,15.20
2023-05-05T16:43:37.220Z,15.20
2023-05-05T16:46:04.471Z,15.20
2023-05-05T16:48:31.180Z,15.30
2023-05-05T16:50:58.160Z,15.30
2023-05-05T16:53:25.023Z,15.20
2023-05-05T16:55:52.723Z,15.20
2023-05-05T16:58:25.221Z,15.20
2023-05-05T17:00:51.964Z,15.10
2023-05-05T17:03:20.253Z,15.10
2023-05-05T17:05:49.859Z,15.10
2023-05-05T17:08:18.257Z,15.10
2023-05-05T17:10:45.544Z,15.10
2023-05-05T17:13:13.421Z,15.10
2023-05-05T17:15:40.924Z,15.10
2023-05-05T17:18:08.417Z,15.10
2023-05-05T17:20:36.212Z,15.20
2023-05-05T17:23:03.232Z,15.20
2023-05-05T17:25:29.830Z,15.20
2023-05-05T17:27:56.730Z,15.20
2023-05-05T17:30:23.653Z,15.20
2023-05-05T17:32:50.356Z,15.30
2023-05-05T17:35:17.067Z,15.30
2023-05-05T17:37:44.032Z,15.30
2023-05-05T17:40:10.869Z,15.40
2023-05-05T17:42:38.200Z,15.40
2023-05-05T17:45:05.336Z,15.40
2023-05-05T17:47:32.076Z,15.40
2023-05-05T17:49:59.348Z,15.40
2023-05-05T17:52:26.019Z,15.40
2023-05-05T17:54:52.687Z,15.40
2023-05-05T17:57:21.084Z,15.30
2023-05-05T17:59:49.609Z,15.30
2023-05-05T18:02:16.901Z,15.30
2023-05-05T18:04:43.723Z,15.30
2023-05-05T18:07:12.128Z,15.20
2023-05-05T18:09:39.291Z,15.30
2023-05-05T18:12:06.863Z,15.20
2023-05-05T18:14:33.936Z,15.10
2023-05-05T18:17:01.425Z,15.10
2023-05-05T18:19:28.163Z,15.00
2023-05-05T18:21:55.081Z,15.00
2023-05-05T18:24:21.759Z,15.00
2023-05-05T18:26:50.488Z,14.90
2023-05-05T18:29:18.450Z,14.90
2023-05-05T18:31:48.604Z,14.90
2023-05-05T18:34:16.643Z,14.90
2023-05-05T18:36:43.570Z,14.80
2023-05-05T18:39:10.331Z,14.80
2023-05-05T18:41:37.051Z,14.80
2023-05-05T18:44:03.879Z,14.80
2023-05-05T18:46:30.686Z,14.80
2023-05-05T18:48:57.514Z,14.80
2023-05-05T18:51:24.226Z,14.70
2023-05-05T18:53:50.846Z,14.70
2023-05-05T18:56:17.469Z,14.70
2023-05-05T18:58:44.154Z,14.70
2023-05-05T19:01:10.876Z,14.70
2023-05-05T19:03:37.587Z,14.60
2023-05-05T19:06:07.597Z,14.60
2023-05-05T19:08:34.327Z,14.60
2023-05-05T19:11:01.051Z,14.60
2023-05-05T19:13:27.769Z,14.60
2023-05-05T19:15:57.041Z,14.50
2023-05-05T19:18:24.564Z,14.50
2023-05-05T19:20:51.210Z,14.50
2023-05-05T19:23:18.066Z,14.40
2023-05-05T19:25:44.739Z,14.40
2023-05-05T19:28:12.157Z,14.40
2023-05-05T19:30:38.873Z,14.30
2023-05-05T19:33:05.774Z,14.30
2023-05-05T19:35:32.497Z,14.30
2023-05-05T19:37:59.744Z,14.20
2023-05-05T19:40:26.416Z,14.20
2023-05-05T19:42:53.281Z,14.10
2023-05-05T19:45:20.078Z,14.10
2023-05-05T19:47:46.754Z,14.10
2023-05-05T19:50:15.385Z,14.10
2023-05-05T19:52:42.184Z,14.00
2023-05-05T19:55:13.236Z,14.00
2023-05-05T19:57:40.520Z,14.00
2023-05-05T20:00:10.423Z,13.90
2023-05-05T20:02:40.917Z,13.90
2023-05-05T20:05:08.061Z,13.80
2023-05-05T20:07:34.844Z,13.70
2023-05-05T20:10:01.558Z,13.70
2023-05-05T20:12:28.251Z,13.70
2023-05-05T20:14:54.935Z,13.60
2023-05-05T20:17:21.736Z,13.60
2023-05-05T20:19:48.677Z,13.60
2023-05-05T20:22:15.355Z,13.50
2023-05-05T20:24:41.966Z,13.50
2023-05-05T20:27:08.731Z,13.40
2023-05-05T20:29:35.381Z,13.30
2023-05-05T20:32:02.151Z,13.30
2023-05-05T20:34:28.809Z,13.20
2023-05-05T20:36:55.629Z,13.10
2023-05-05T20:39:22.300Z,13.10
2023-05-05T20:41:48.982Z,13.00
2023-05-05T20:44:15.778Z,13.00
2023-05-05T20:46:42.670Z,13.00
2023-05-05T20:49:09.288Z,12.90
2023-05-05T20:51:36.165Z,12.90
2023-05-05T20:54:03.119Z,12.90
2023-05-05T20:56:29.765Z,12.90
2023-05-05T20:58:56.798Z,12.90
2023-05-05T21:01:23.635Z,12.90
2023-05-05T21:03:50.402Z,12.90
2023-05-05T21:06:19.365Z,12.80
2023-05-05T21:08:47.151Z,12.80
2023-05-05T21:11:13.875Z,12.80
2023-05-05T21:13:40.498Z,12.90
2023-05-05T21:16:07.302Z,12.90
2023-05-05T21:18:34.044Z,12.90
2023-05-05T21:21:01.217Z,12.90
2023-05-05T21:23:27.886Z,12.80
2023-05-05T21:25:54.612Z,12.80
2023-05-05T21:28:21.218Z,12.80
2023-05-05T21:31:10.107Z,12.80
2023-05-05T21:33:37.541Z,12.80
2023-05-05T21:36:04.828Z,12.80
2023-05-05T21:38:31.459Z,12.80
2023-05-05T21:40:58.653Z,12.80
2023-05-05T21:43:31.060Z,12.80
2023-05-05T21:45:59.348Z,12.80
2023-05-05T21:48:25.947Z,12.80
2023-05-05T21:50:53.307Z,12.80
2023-05-05T21:53:19.939Z,12.80
2023-05-05T21:55:46.939Z,12.70
2023-05-05T21:58:13.986Z,12.80
2023-05-05T22:00:42.191Z,12.80
2023-05-05T22:03:09.685Z,12.70
2023-05-05T22:05:36.442Z,12.70
2023-05-05T22:08:03.152Z,12.70
2023-05-05T22:10:29.749Z,12.70
2023-05-05T22:12:56.896Z,12.70
2023-05-05T22:15:25.417Z,12.70
2023-05-05T22:17:54.207Z,12.70
2023-05-05T22:20:21.651Z,12.70
2023-05-05T22:22:48.295Z,12.60
2023-05-05T22:25:14.973Z,12.70
2023-05-05T22:27:41.636Z,12.70
2023-05-05T22:30:08.871Z,12.70
2023-05-05T22:32:35.673Z,12.70
2023-05-05T22:35:02.398Z,12.60
2023-05-05T22:37:29.064Z,12.50
2023-05-05T22:39:55.752Z,12.50
2023-05-05T22:42:22.370Z,12.50
2023-05-05T22:44:52.773Z,12.40
2023-05-05T22:47:19.422Z,12.40
2023-05-05T22:49:46.228Z,12.30
2023-05-05T22:52:13.629Z,12.30
2023-05-05T22:54:40.325Z,12.30
2023-05-05T22:57:07.100Z,12.20
2023-05-05T22:59:33.731Z,12.20
2023-05-05T23:02:00.362Z,12.10
2023-05-05T23:04:27.118Z,12.00
2023-05-05T23:06:53.846Z,12.00
2023-05-05T23:09:20.835Z,11.90
2023-05-05T23:11:47.489Z,11.90
2023-05-05T23:14:14.205Z,11.80
2023-05-05T23:16:40.870Z,11.70
2023-05-05T23:19:07.487Z,11.70
2023-05-05T23:21:41.847Z,11.70
2023-05-05T23:24:12.406Z,11.60
2023-05-05T23:26:39.011Z,11.60
2023-05-05T23:29:05.950Z,11.50
2023-05-05T23:31:32.575Z,11.50
2023-05-05T23:33:59.197Z,11.50
2023-05-05T23:36:26.502Z,11.40
2023-05-05T23:38:53.219Z,11.40
2023-05-05T23:41:19.824Z,11.30
2023-05-05T23:43:46.778Z,11.30
2023-05-05T23:46:13.503Z,11.20
2023-05-05T23:48:40.145Z,11.20
2023-05-05T23:51:06.862Z,11.20
2023-05-05T23:53:33.564Z,11.10
2023-05-05T23:56:00.332Z,11.10
2023-05-05T23:58:26.992Z,11.10
